Time;durP1;ratioP1;P1;durP2;ratioP2;P2;SDS_P1;SDS_P2;PMS_P1;PMS_P2;Temp;Humidity;BMP_temperature;BMP_pressure;BME280_temperature;BME280_humidity;BME280_pressure;Samples;Min_cycle;Max_cycle;Signal;HPM_P1;HPM_P2
2024/04/25 00:00:53;;;;;;;6.40;2.60;;;;;;;3.48;nan;100369.66;5370679;26;20924;-80
2024/04/25 00:03:26;;;;;;;6.10;2.27;;;;;;;2.17;nan;100109.88;5370552;26;20600;-80
2024/04/25 00:05:51;;;;;;;8.70;2.60;;;;;;;2.69;nan;100197.00;5361085;26;20233;-79
2024/04/25 00:08:19;;;;;;;9.10;2.80;;;;;;;2.76;nan;100241.38;5386353;26;20512;-80
2024/04/25 00:10:50;;;;;;;6.70;2.77;;;;;;;4.32;nan;100462.38;5358801;26;20263;-79
2024/04/25 00:13:16;;;;;;;7.13;2.37;;;;;;;2.51;nan;100168.97;5364121;26;21178;-79
2024/04/25 00:15:41;;;;;;;8.07;2.50;;;;;;;2.29;nan;100171.28;5389709;26;20471;-79
2024/04/25 00:18:07;;;;;;;4.90;2.30;;;;;;;2.04;nan;100107.69;5365037;26;20813;-79
2024/04/25 00:20:35;;;;;;;6.93;2.33;;;;;;;2.87;nan;100239.22;5365118;26;20249;-80
2024/04/25 00:23:00;;;;;;;5.63;2.07;;;;;;;3.62;nan;100308.00;5358008;26;20257;-80
2024/04/25 00:25:26;;;;;;;8.17;3.43;;;;;;;3.93;nan;100363.03;5390525;26;20991;-80
2024/04/25 00:27:58;;;;;;;4.80;1.90;;;;;;;3.81;nan;100340.50;5368170;26;20268;-79
2024/04/25 00:30:26;;;;;;;7.47;2.30;;;;;;;2.30;nan;100096.16;5388253;26;20750;-79
2024/04/25 00:32:52;;;;;;;8.37;2.50;;;;;;;4.18;nan;100401.00;5388957;26;20592;-79
2024/04/25 00:35:20;;;;;;;6.53;2.07;;;;;;;3.48;nan;100310.50;5363956;26;21030;-79
2024/04/25 00:37:46;;;;;;;5.87;2.27;;;;;;;2.69;nan;100202.28;5368248;26;20864;-79
2024/04/25 00:40:11;;;;;;;6.63;2.10;;;;;;;2.37;nan;100083.09;5366450;26;20564;-79
2024/04/25 00:42:41;;;;;;;7.10;2.03;;;;;;;2.83;nan;100186.72;5386119;26;20279;-79
2024/04/25 00:45:09;;;;;;;9.70;2.30;;;;;;;3.35;nan;100234.94;5387379;26;20607;-79
2024/04/25 00:47:38;;;;;;;9.17;2.03;;;;;;;3.03;nan;100208.44;5387936;26;20531;-79
2024/04/25 00:50:04;;;;;;;5.97;2.00;;;;;;;2.93;nan;100195.34;5364564;26;20471;-79
2024/04/25 00:52:34;;;;;;;5.90;2.03;;;;;;;4.20;nan;100340.59;5390055;26;20908;-79
2024/04/25 00:55:04;;;;;;;4.30;1.80;;;;;;;4.50;nan;100426.66;5364899;26;21120;-80
2024/04/25 00:57:33;;;;;;;8.33;2.57;;;;;;;5.86;nan;100644.59;5371375;26;20518;-80
2024/04/25 01:00:01;;;;;;;6.03;2.37;;;;;;;2.48;nan;100056.31;5372757;26;20481;-80
2024/04/25 01:02:28;;;;;;;5.90;2.23;;;;;;;3.70;nan;100240.84;5363896;26;20468;-80
2024/04/25 01:04:55;;;;;;;6.80;2.37;;;;;;;2.54;nan;100113.06;5363503;26;20506;-79
2024/04/25 01:07:20;;;;;;;4.93;2.00;;;;;;;4.27;nan;100354.84;5366717;26;20955;-79
2024/04/25 01:09:48;;;;;;;5.60;2.07;;;;;;;4.40;nan;100391.50;5359380;26;20907;-79
2024/04/25 01:12:17;;;;;;;6.33;2.60;;;;;;;3.53;nan;100269.25;5363947;26;20370;-79
2024/04/25 01:14:43;;;;;;;6.30;2.27;;;;;;;2.51;nan;100086.91;5367351;26;20475;-79
2024/04/25 01:17:09;;;;;;;6.40;2.67;;;;;;;4.23;nan;100327.00;5364073;26;20532;-80
2024/04/25 01:19:36;;;;;;;7.00;2.30;;;;;;;4.62;nan;100432.44;5358772;26;20543;-80
2024/04/25 01:22:02;;;;;;;6.20;2.00;;;;;;;4.92;nan;100496.50;5388006;26;20265;-80
2024/04/25 01:24:28;;;;;;;5.40;2.20;;;;;;;4.65;nan;100445.38;5388855;26;20459;-79
2024/04/25 01:26:58;;;;;;;5.90;1.90;;;;;;;3.17;nan;100218.38;5362481;26;20413;-79
2024/04/25 01:29:27;;;;;;;4.67;1.83;;;;;;;4.88;nan;100477.38;5359358;26;20652;-79
2024/04/25 01:31:56;;;;;;;7.00;2.03;;;;;;;3.49;nan;100243.22;5386527;26;20543;-79
2024/04/25 01:34:23;;;;;;;4.30;1.73;;;;;;;2.75;nan;100110.78;5389444;26;20901;-80
2024/04/25 01:36:52;;;;;;;6.43;3.00;;;;;;;4.59;nan;100416.84;5370057;26;21014;-80
2024/04/25 01:39:17;;;;;;;6.90;2.47;;;;;;;4.02;nan;100316.06;5391624;26;20486;-80
2024/04/25 01:41:43;;;;;;;6.10;2.47;;;;;;;4.50;nan;100413.38;5358545;26;20936;-79
2024/04/25 01:44:08;;;;;;;5.10;2.10;;;;;;;3.49;nan;100211.41;5371706;26;20273;-80
2024/04/25 01:46:34;;;;;;;5.43;2.20;;;;;;;3.82;nan;100244.81;5360463;26;20258;-79
2024/04/25 01:49:00;;;;;;;6.00;2.03;;;;;;;3.03;nan;100137.72;5363327;26;20301;-80
2024/04/25 01:51:28;;;;;;;8.10;2.90;;;;;;;3.61;nan;100271.84;5368530;26;20479;-80
2024/04/25 01:53:54;;;;;;;5.87;2.30;;;;;;;3.77;nan;100264.91;5359384;26;20240;-80
2024/04/25 01:56:19;;;;;;;9.00;2.30;;;;;;;4.51;nan;100377.03;5390151;26;20942;-80
2024/04/25 01:58:45;;;;;;;6.40;2.30;;;;;;;4.48;nan;100334.88;5388245;26;20669;-80
2024/04/25 02:01:10;;;;;;;5.73;2.10;;;;;;;2.99;nan;100131.13;5364603;26;20246;-80
2024/04/25 02:03:38;;;;;;;5.50;2.03;;;;;;;4.50;nan;100407.25;5367823;26;20245;-80
2024/04/25 02:06:05;;;;;;;6.87;2.50;;;;;;;4.36;nan;100350.34;5371072;26;20234;-80
2024/04/25 02:08:30;;;;;;;4.90;2.10;;;;;;;3.56;nan;100175.28;5365690;26;21004;-80
2024/04/25 02:10:59;;;;;;;5.50;2.17;;;;;;;4.51;nan;100371.72;5361693;26;20474;-80
2024/04/25 02:13:24;;;;;;;4.60;1.90;;;;;;;3.98;nan;100272.31;5388042;26;20245;-79
2024/04/25 02:15:52;;;;;;;5.00;2.30;;;;;;;3.95;nan;100265.50;5361439;26;20515;-79
2024/04/25 02:18:20;;;;;;;5.90;2.30;;;;;;;4.08;nan;100318.09;5390779;26;20669;-79
2024/04/25 02:26:14;;;;;;;6.07;2.00;;;;;;;3.23;nan;100175.31;5391973;26;20523;-79
2024/04/25 02:28:39;;;;;;;6.37;2.00;;;;;;;3.75;nan;100310.16;5392907;26;20835;-79
2024/04/25 02:31:13;;;;;;;4.47;1.50;;;;;;;3.79;nan;100311.50;5389652;26;20715;-79
2024/04/25 02:33:39;;;;;;;6.60;1.87;;;;;;;2.40;nan;100043.91;5387282;26;20836;-79
2024/04/25 02:36:07;;;;;;;6.33;1.57;;;;;;;5.17;nan;100569.84;5387245;26;20607;-79
2024/04/25 02:38:37;;;;;;;6.77;1.90;;;;;;;4.01;nan;100327.69;5364051;26;20268;-79
2024/04/25 02:41:03;;;;;;;4.67;1.43;;;;;;;3.28;nan;100211.91;5388990;26;21019;-79
2024/04/25 02:43:31;;;;;;;4.87;1.40;;;;;;;2.76;nan;100120.38;5362663;26;20529;-80
2024/04/25 02:45:59;;;;;;;4.80;1.30;;;;;;;3.47;nan;100222.19;5363617;26;20253;-79
2024/04/25 02:48:26;;;;;;;5.23;1.50;;;;;;;3.40;nan;100184.06;5363408;26;20471;-79
2024/04/25 02:50:52;;;;;;;5.10;1.30;;;;;;;3.81;nan;100267.03;5365311;26;20479;-80
2024/04/25 02:53:20;;;;;;;4.90;1.07;;;;;;;3.56;nan;100270.72;5387851;26;20943;-80
2024/04/25 02:55:45;;;;;;;5.10;1.40;;;;;;;3.43;nan;100241.22;5390228;26;20238;-79
2024/04/25 02:58:10;;;;;;;5.27;1.70;;;;;;;2.69;nan;100100.81;5391060;26;20528;-79
2024/04/25 03:00:36;;;;;;;4.10;1.30;;;;;;;4.44;nan;100360.94;5392168;26;20686;-80
2024/04/25 03:03:01;;;;;;;6.60;1.50;;;;;;;3.66;nan;100205.06;5360129;26;20249;-80
2024/04/25 03:05:27;;;;;;;4.60;1.33;;;;;;;4.36;nan;100323.78;5390230;26;20304;-79
2024/04/25 03:07:55;;;;;;;4.93;1.50;;;;;;;3.87;nan;100301.84;5372049;26;20242;-79
2024/04/25 03:10:20;;;;;;;6.20;1.30;;;;;;;5.12;nan;100446.38;5364855;26;20256;-79
2024/04/25 03:12:46;;;;;;;6.37;1.20;;;;;;;2.86;nan;100049.50;5361056;26;20530;-79
2024/04/25 03:15:11;;;;;;;5.13;1.37;;;;;;;3.60;nan;100205.75;5369649;26;20867;-79
2024/04/25 03:17:37;;;;;;;4.40;1.40;;;;;;;3.47;nan;100171.81;5363408;26;20246;-79
2024/04/25 03:20:02;;;;;;;5.80;1.23;;;;;;;4.56;nan;100361.41;5370836;26;20249;-79
2024/04/25 03:22:28;;;;;;;6.00;1.40;;;;;;;3.41;nan;100191.00;5368936;26;20729;-79
2024/04/25 03:24:53;;;;;;;5.20;1.47;;;;;;;3.19;nan;100200.50;5364350;26;20293;-79
2024/04/25 03:27:19;;;;;;;5.17;1.37;;;;;;;4.47;nan;100399.63;5390441;26;20230;-79
2024/04/25 03:29:47;;;;;;;4.67;1.23;;;;;;;3.61;nan;100294.91;5361439;26;20281;-79
2024/04/25 03:32:12;;;;;;;4.60;1.40;;;;;;;3.23;nan;100228.31;5390984;26;20253;-79
2024/04/25 03:34:37;;;;;;;4.17;1.20;;;;;;;3.27;nan;100234.94;5389889;26;20523;-79
2024/04/25 03:37:03;;;;;;;5.50;1.30;;;;;;;3.56;nan;100350.28;5389212;26;20241;-79
2024/04/25 03:39:30;;;;;;;4.83;1.20;;;;;;;5.05;nan;100587.16;5391000;26;20293;-79
2024/04/25 03:41:56;;;;;;;6.40;1.30;;;;;;;4.82;nan;100454.16;5359870;26;20240;-79
2024/04/25 03:44:24;;;;;;;4.27;1.00;;;;;;;2.88;nan;100131.44;5359296;26;20483;-79
2024/04/25 03:46:49;;;;;;;5.30;1.30;;;;;;;4.34;nan;100378.06;5392301;26;20287;-79
2024/04/25 03:49:17;;;;;;;5.07;1.17;;;;;;;4.02;nan;100295.69;5367889;26;20554;-79
2024/04/25 03:51:43;;;;;;;5.30;1.00;;;;;;;4.12;nan;100308.78;5392006;26;20269;-79
2024/04/25 03:54:08;;;;;;;11.10;1.60;;;;;;;5.25;nan;100512.31;5363101;26;20474;-79
2024/04/25 03:56:33;;;;;;;10.33;2.57;;;;;;;4.22;nan;100320.03;5369522;26;20240;-79
2024/04/25 03:58:59;;;;;;;7.60;1.33;;;;;;;2.36;nan;100047.03;5383064;26;20248;-80
2024/04/25 04:01:24;;;;;;;7.63;1.40;;;;;;;3.43;nan;100251.84;5363265;26;20743;-79
2024/04/25 04:03:50;;;;;;;6.53;1.20;;;;;;;4.16;nan;100352.53;5358664;26;20705;-80
2024/04/25 04:06:19;;;;;;;4.97;1.20;;;;;;;3.80;nan;100297.22;5387261;26;20342;-79
2024/04/25 04:08:47;;;;;;;5.67;1.10;;;;;;;5.02;nan;100513.06;5361815;26;20238;-79
2024/04/25 04:11:12;;;;;;;10.03;0.87;;;;;;;2.66;nan;100149.66;5358515;26;20470;-79
2024/04/25 04:13:38;;;;;;;4.73;1.00;;;;;;;4.30;nan;100382.88;5385994;26;20519;-79
2024/04/25 04:16:09;;;;;;;5.40;1.47;;;;;;;3.24;nan;100194.69;5388257;26;20276;-79
2024/04/25 04:18:34;;;;;;;6.17;1.23;;;;;;;3.33;nan;100242.25;5387776;26;20287;-80
2024/04/25 04:21:00;;;;;;;4.87;1.10;;;;;;;4.96;nan;100503.13;5392469;26;20476;-79
2024/04/25 04:23:28;;;;;;;5.53;1.00;;;;;;;2.32;nan;100043.91;5361875;26;20289;-79
2024/04/25 04:25:55;;;;;;;7.90;1.30;;;;;;;4.52;nan;100403.44;5385771;26;20271;-79
2024/04/25 04:28:23;;;;;;;5.30;0.93;;;;;;;3.52;nan;100267.56;5386761;26;20478;-79
2024/04/25 04:30:49;;;;;;;6.27;0.80;;;;;;;3.04;nan;100179.13;5371493;26;20587;-79
2024/04/25 04:33:14;;;;;;;6.17;1.13;;;;;;;3.67;nan;100304.03;5369000;26;20910;-79
2024/04/25 04:35:39;;;;;;;6.43;1.13;;;;;;;4.36;nan;100384.03;5361857;26;20248;-80
2024/04/25 04:38:05;;;;;;;5.30;1.13;;;;;;;3.24;nan;100186.72;5385007;26;20738;-79
2024/04/25 04:40:30;;;;;;;4.03;0.90;;;;;;;2.43;nan;100072.69;5368006;26;20242;-79
2024/04/25 04:42:58;;;;;;;8.23;1.30;;;;;;;2.63;nan;100097.03;5391219;26;20258;-79
2024/04/25 04:45:23;;;;;;;6.80;1.30;;;;;;;2.46;nan;100085.59;5372769;26;20275;-80
2024/04/25 04:47:49;;;;;;;7.53;1.33;;;;;;;4.08;nan;100310.13;5390307;26;20480;-80
2024/04/25 04:50:18;;;;;;;10.50;1.33;;;;;;;3.85;nan;100278.16;5390401;26;20248;-80
2024/04/25 04:52:45;;;;;;;7.10;1.47;;;;;;;3.45;nan;100186.22;5365135;26;20738;-80
2024/04/25 04:55:10;;;;;;;6.90;1.50;;;;;;;3.16;nan;100121.31;5364216;26;20524;-79
2024/04/25 04:57:36;;;;;;;8.23;1.80;;;;;;;3.20;nan;100159.75;5359915;26;20988;-79
2024/04/25 05:00:04;;;;;;;10.27;1.57;;;;;;;3.61;nan;100200.25;5366240;26;20337;-80
2024/04/25 05:02:34;;;;;;;7.53;2.23;;;;;;;2.92;nan;100099.16;5391699;26;20269;-79
2024/04/25 05:05:02;;;;;;;7.00;1.73;;;;;;;3.71;nan;100231.91;5391186;26;20585;-79
2024/04/25 05:07:27;;;;;;;12.33;1.47;;;;;;;2.62;nan;100094.53;5362682;26;20480;-79
2024/04/25 05:09:55;;;;;;;7.73;1.33;;;;;;;3.85;nan;100324.06;5391260;26;20831;-79
2024/04/25 05:12:20;;;;;;;6.73;1.07;;;;;;;3.55;nan;100298.22;5392625;26;20252;-79
2024/04/25 05:14:46;;;;;;;9.57;1.13;;;;;;;4.16;nan;100391.53;5360503;26;20626;-79
2024/04/25 05:17:11;;;;;;;5.40;1.90;;;;;;;4.41;nan;100410.91;5390620;26;20291;-79
2024/04/25 05:19:37;;;;;;;7.33;1.83;;;;;;;4.56;nan;100442.94;5388310;26;20349;-79
2024/04/25 05:22:03;;;;;;;5.53;1.53;;;;;;;2.60;nan;100123.00;5390400;26;20242;-80
2024/04/25 05:24:28;;;;;;;11.63;1.80;;;;;;;2.70;nan;100155.44;5369608;26;20618;-79
2024/04/25 05:26:54;;;;;;;6.57;1.27;;;;;;;3.72;nan;100294.56;5370288;26;20479;-80
2024/04/25 05:29:19;;;;;;;6.87;1.70;;;;;;;4.49;nan;100414.38;5371430;26;20276;-80
2024/04/25 05:31:44;;;;;;;5.77;1.60;;;;;;;4.32;nan;100334.94;5391467;26;20658;-80
2024/04/25 05:34:10;;;;;;;8.63;1.30;;;;;;;4.45;nan;100306.81;5360899;26;20269;-79
2024/04/25 05:36:35;;;;;;;8.37;1.90;;;;;;;5.12;nan;100348.03;5391254;26;20241;-80
2024/04/25 05:39:01;;;;;;;9.40;1.33;;;;;;;5.60;nan;100428.53;5361243;26;20339;-80
2024/04/25 05:41:26;;;;;;;6.87;1.70;;;;;;;4.88;nan;100288.69;5369687;26;20323;-79
2024/04/25 05:43:52;;;;;;;10.23;1.40;;;;;;;4.42;nan;100192.16;5368931;26;20589;-79
2024/04/25 05:46:18;;;;;;;9.87;1.73;;;;;;;3.89;nan;100085.78;5365451;26;20253;-79
2024/04/25 05:48:44;;;;;;;6.93;1.20;;;;;;;4.33;nan;100151.56;5361533;26;20342;-79
2024/04/25 05:51:09;;;;;;;8.60;1.70;;;;;;;5.02;nan;100227.81;5363510;26;20484;-79
2024/04/25 05:53:35;;;;;;;12.13;1.77;;;;;;;4.42;nan;100139.06;5385567;26;20289;-79
2024/04/25 05:56:00;;;;;;;10.13;1.40;;;;;;;5.73;nan;100362.25;5364864;26;20233;-79
2024/04/25 05:58:28;;;;;;;10.00;1.37;;;;;;;4.42;nan;100108.00;5364422;26;20282;-79
2024/04/25 06:00:53;;;;;;;5.87;1.20;;;;;;;3.83;nan;99994.44;5368449;26;20233;-79
2024/04/25 06:03:19;;;;;;;7.23;1.83;;;;;;;4.90;nan;100182.22;5388923;26;21119;-79
2024/04/25 06:05:44;;;;;;;15.30;1.77;;;;;;;4.74;nan;100138.84;5366075;26;20667;-79
2024/04/25 06:08:10;;;;;;;7.97;1.67;;;;;;;3.88;nan;100014.31;5363164;26;20243;-80
2024/04/25 06:10:35;;;;;;;6.27;1.30;;;;;;;5.44;nan;100272.53;5389250;26;20246;-80
2024/04/25 06:13:01;;;;;;;13.03;2.03;;;;;;;4.20;nan;100067.19;5388830;26;20284;-80
2024/04/25 06:15:26;;;;;;;8.40;1.60;;;;;;;4.46;nan;100124.44;5390950;26;20412;-80
2024/04/25 06:17:52;;;;;;;11.97;1.90;;;;;;;4.26;nan;100034.63;5358772;26;20254;-79
2024/04/25 06:20:20;;;;;;;6.57;1.30;;;;;;;5.15;nan;100212.94;5389592;26;20287;-80
2024/04/25 06:22:45;;;;;;;11.07;1.50;;;;;;;4.60;nan;100112.19;5364611;26;21142;-79
2024/04/25 06:25:11;;;;;;;12.53;1.90;;;;;;;5.12;nan;100242.53;5364898;26;20466;-79
2024/04/25 06:27:36;;;;;;;10.93;2.00;;;;;;;5.46;nan;100259.03;5362956;26;20257;-79
2024/04/25 06:30:02;;;;;;;8.67;1.50;;;;;;;4.29;nan;100060.81;5364386;26;20265;-80
2024/04/25 06:32:28;;;;;;;11.13;2.03;;;;;;;3.60;nan;99927.28;5370650;26;20905;-79
2024/04/25 06:34:54;;;;;;;9.40;1.53;;;;;;;4.33;nan;100052.50;5388063;26;20241;-79
2024/04/25 06:37:19;;;;;;;9.83;1.20;;;;;;;7.16;nan;100468.72;5363748;26;20240;-79
2024/04/25 06:39:46;;;;;;;12.53;2.13;;;;;;;4.20;nan;99981.44;5361337;26;20526;-79
2024/04/25 06:42:14;;;;;;;7.27;1.70;;;;;;;4.63;nan;100087.94;5390009;26;20276;-79
2024/04/25 06:44:42;;;;;;;12.23;1.60;;;;;;;5.54;nan;100192.47;5360160;26;20476;-79
2024/04/25 06:47:11;;;;;;;8.27;1.30;;;;;;;5.17;nan;100131.13;5365169;26;20548;-79
2024/04/25 06:49:37;;;;;;;9.13;2.20;;;;;;;4.95;nan;100121.41;5361288;26;20456;-80
2024/04/25 06:52:02;;;;;;;7.33;1.57;;;;;;;5.69;nan;100192.47;5387856;26;20515;-80
2024/04/25 06:54:28;;;;;;;9.63;1.50;;;;;;;6.18;nan;100256.66;5390333;26;20798;-80
2024/04/25 06:56:53;;;;;;;10.97;1.57;;;;;;;5.08;nan;100079.06;5391766;26;20272;-80
2024/04/25 06:59:19;;;;;;;9.90;1.43;;;;;;;5.51;nan;100113.84;5368808;26;20281;-80
2024/04/25 07:01:46;;;;;;;6.30;1.23;;;;;;;4.49;nan;99927.56;5368281;26;20283;-80
2024/04/25 07:04:11;;;;;;;10.53;1.43;;;;;;;5.87;nan;100203.56;5361586;26;20743;-79
2024/04/25 07:06:37;;;;;;;7.80;1.50;;;;;;;4.18;nan;99914.41;5364754;26;20464;-79
2024/04/25 07:09:06;;;;;;;13.20;2.53;;;;;;;5.71;nan;100193.13;5367609;26;20706;-79
2024/04/25 07:11:32;;;;;;;9.40;1.43;;;;;;;5.02;nan;100063.84;5363047;26;20276;-79
2024/04/25 07:13:57;;;;;;;9.93;1.40;;;;;;;5.36;nan;100105.06;5367403;26;21053;-79
2024/04/25 07:16:23;;;;;;;10.67;1.70;;;;;;;5.27;nan;100117.59;5389099;26;20650;-79
2024/04/25 07:18:48;;;;;;;5.97;1.37;;;;;;;6.26;nan;100269.06;5360329;26;20305;-79
2024/04/25 07:21:13;;;;;;;9.40;1.40;;;;;;;7.03;nan;100372.56;5389713;26;20233;-79
2024/04/25 07:23:39;;;;;;;7.00;1.50;;;;;;;7.55;nan;100453.38;5360926;26;20307;-79
2024/04/25 07:26:04;;;;;;;6.80;1.33;;;;;;;5.34;nan;100091.91;5389538;26;20796;-79
2024/04/25 07:28:34;;;;;;;12.40;1.83;;;;;;;4.91;nan;100038.53;5390770;26;20301;-79
2024/04/25 07:31:03;;;;;;;8.80;2.00;;;;;;;6.44;nan;100298.81;5361198;26;20246;-79
2024/04/25 07:33:29;;;;;;;14.23;1.60;;;;;;;6.66;nan;100392.19;5358639;26;20560;-79
2024/04/25 07:35:55;;;;;;;13.80;1.63;;;;;;;5.42;nan;100146.88;5358466;26;20468;-79
2024/04/25 07:38:20;;;;;;;9.23;1.50;;;;;;;4.63;nan;99998.47;5387117;26;20421;-79
2024/04/25 07:40:46;;;;;;;12.10;1.90;;;;;;;5.37;nan;100178.50;5362106;26;20256;-79
2024/04/25 07:43:11;;;;;;;8.63;1.50;;;;;;;6.08;nan;100267.59;5360931;26;20254;-80
2024/04/25 07:45:37;;;;;;;5.80;1.47;;;;;;;4.51;nan;100039.72;5364420;26;20276;-78
2024/04/25 07:48:02;;;;;;;7.87;1.40;;;;;;;5.45;nan;100178.41;5369235;26;20242;-79
2024/04/25 07:50:28;;;;;;;8.80;1.40;;;;;;;6.46;nan;100354.59;5389801;26;20257;-79
2024/04/25 07:52:53;;;;;;;11.00;1.80;;;;;;;5.58;nan;100162.66;5387351;26;21037;-79
2024/04/25 07:55:19;;;;;;;7.50;1.67;;;;;;;5.18;nan;100147.94;5388951;26;20296;-78
2024/04/25 07:57:44;;;;;;;7.30;1.37;;;;;;;5.55;nan;100164.84;5359189;26;20244;-79
2024/04/25 08:00:10;;;;;;;11.73;1.53;;;;;;;5.19;nan;100104.38;5356607;26;20245;-79
2024/04/25 08:02:37;;;;;;;9.53;1.53;;;;;;;4.59;nan;100018.41;5364765;26;20257;-79
2024/04/25 08:05:07;;;;;;;6.20;1.20;;;;;;;6.68;nan;100358.16;5359254;26;20242;-79
2024/04/25 08:07:35;;;;;;;8.37;1.50;;;;;;;5.09;nan;100072.75;5356560;26;20486;-79
2024/04/25 08:10:03;;;;;;;7.20;1.60;;;;;;;4.58;nan;100002.69;5365883;26;20487;-79
2024/04/25 08:12:30;;;;;;;7.37;1.30;;;;;;;4.30;nan;99980.16;5387569;26;20491;-79
2024/04/25 08:14:58;;;;;;;9.40;2.00;;;;;;;5.85;nan;100233.06;5360256;26;20463;-79
2024/04/25 08:19:52;;;;;;;10.10;1.30;;;;;;;6.75;nan;100343.09;5370330;26;20532;-72
2024/04/25 08:22:22;;;;;;;9.90;1.87;;;;;;;7.37;nan;100427.09;5360578;26;20490;-72
2024/04/25 08:24:49;;;;;;;6.53;1.40;;;;;;;7.29;nan;100432.53;5396662;26;21007;-72
2024/04/25 08:27:14;;;;;;;6.37;1.40;;;;;;;7.33;nan;100456.00;5386328;26;20475;-72
2024/04/25 08:29:42;;;;;;;8.27;2.03;;;;;;;7.29;nan;100430.72;5377268;26;20526;-72
2024/04/25 08:32:07;;;;;;;8.03;1.97;;;;;;;7.06;nan;100396.19;5378388;26;20283;-72
2024/04/25 08:34:33;;;;;;;8.70;1.70;;;;;;;6.99;nan;100416.59;5377954;26;20492;-72
2024/04/25 08:36:58;;;;;;;8.97;1.97;;;;;;;7.44;nan;100455.53;5377327;26;21762;-72
2024/04/25 08:39:23;;;;;;;7.53;1.30;;;;;;;7.16;nan;100390.53;5374648;26;20317;-72
2024/04/25 08:41:50;;;;;;;12.20;2.10;;;;;;;7.52;nan;100456.41;5380360;26;20246;-72
2024/04/25 08:44:16;;;;;;;16.43;2.10;;;;;;;7.73;nan;100445.78;5384551;26;20246;-72
2024/04/25 08:46:45;;;;;;;10.50;2.17;;;;;;;7.48;nan;100374.06;5375533;26;20464;-72
2024/04/25 08:49:12;;;;;;;10.53;1.57;;;;;;;7.67;nan;100385.97;5378043;26;20285;-72
2024/04/25 08:51:39;;;;;;;7.97;1.50;;;;;;;7.58;nan;100423.63;5389619;26;21081;-72
2024/04/25 08:54:04;;;;;;;15.00;2.30;;;;;;;7.47;nan;100377.75;5375401;26;20596;-72
2024/04/25 08:56:30;;;;;;;7.00;1.70;;;;;;;7.89;nan;100426.81;5377109;26;20476;-72
2024/04/25 08:58:56;;;;;;;5.93;1.40;;;;;;;8.09;nan;100466.25;5375808;26;20331;-72
2024/04/25 09:01:23;;;;;;;13.80;1.60;;;;;;;8.09;nan;100455.56;5375987;26;20516;-72
2024/04/25 09:03:57;;;;;;;7.37;1.40;;;;;;;7.85;nan;100428.22;5376945;26;20286;-72
2024/04/25 09:06:22;;;;;;;6.10;1.30;;;;;;;8.34;nan;100458.66;5376406;26;21308;-72
2024/04/25 09:08:48;;;;;;;11.00;1.63;;;;;;;7.43;nan;100290.25;5368776;26;20533;-72
2024/04/25 09:11:21;;;;;;;9.17;2.30;;;;;;;8.43;nan;100462.06;5375466;26;20241;-72
2024/04/25 09:13:51;;;;;;;13.10;2.13;;;;;;;7.96;nan;100418.91;5377676;26;20885;-72
2024/04/25 09:16:16;;;;;;;11.80;1.60;;;;;;;8.17;nan;100468.78;5375996;26;20464;-72
2024/04/25 09:18:42;;;;;;;6.07;1.50;;;;;;;8.13;nan;100475.56;5368511;26;20635;-72
2024/04/25 09:21:08;;;;;;;6.23;1.40;;;;;;;7.75;nan;100438.38;5383169;26;20334;-72
2024/04/25 09:23:41;;;;;;;11.83;1.80;;;;;;;7.74;nan;100394.03;5378690;26;20250;-72
2024/04/25 09:26:07;;;;;;;8.63;1.70;;;;;;;7.80;nan;100432.50;5382174;26;20996;-72
2024/04/25 09:28:33;;;;;;;8.33;1.50;;;;;;;8.10;nan;100441.19;5380495;26;20689;-72
2024/04/25 09:30:58;;;;;;;6.90;1.53;;;;;;;8.19;nan;100437.38;5381520;26;20759;-72
2024/04/25 09:33:24;;;;;;;7.30;1.27;;;;;;;8.18;nan;100457.06;5390707;26;20882;-72
2024/04/25 09:35:51;;;;;;;6.60;1.40;;;;;;;8.40;nan;100425.03;5393349;26;20591;-72
2024/04/25 09:38:17;;;;;;;9.40;1.40;;;;;;;7.78;nan;100367.78;5371325;26;20300;-72
2024/04/25 09:40:46;;;;;;;15.37;1.70;;;;;;;8.59;nan;100454.56;5378291;26;20522;-72
2024/04/25 09:43:12;;;;;;;9.67;1.80;;;;;;;8.09;nan;100362.91;5380559;26;20260;-72
2024/04/25 09:45:40;;;;;;;8.67;1.93;;;;;;;7.95;nan;100437.75;5380496;26;20475;-72
2024/04/25 09:48:14;;;;;;;7.80;1.60;;;;;;;8.05;nan;100454.31;5393840;26;20296;-72
2024/04/25 09:50:43;;;;;;;6.77;1.73;;;;;;;7.92;nan;100461.16;5392172;26;20502;-72
2024/04/25 09:53:23;;;;;;;4.40;1.17;;;;;;;7.33;nan;100407.97;5375303;26;20902;-72
2024/04/25 09:55:50;;;;;;;6.63;1.20;;;;;;;7.93;nan;100454.00;5375279;26;20550;-72
2024/04/25 09:58:32;;;;;;;7.37;1.20;;;;;;;7.96;nan;100460.81;5379295;26;20529;-72
2024/04/25 10:00:58;;;;;;;7.53;1.40;;;;;;;7.26;nan;100367.06;5383693;26;20536;-72
2024/04/25 10:03:23;;;;;;;7.00;1.20;;;;;;;7.84;nan;100439.09;5376599;26;20540;-72
2024/04/25 10:05:52;;;;;;;6.37;1.40;;;;;;;7.96;nan;100426.91;5380459;26;20464;-72
2024/04/25 10:08:20;;;;;;;5.90;1.60;;;;;;;7.92;nan;100420.28;5379348;26;20343;-72
2024/04/25 10:10:45;;;;;;;8.90;1.63;;;;;;;7.97;nan;100452.59;5395032;26;20533;-72
2024/04/25 10:13:19;;;;;;;6.90;1.47;;;;;;;7.72;nan;100414.75;5376119;26;20913;-72
2024/04/25 10:15:49;;;;;;;7.73;1.77;;;;;;;8.00;nan;100448.72;5379246;26;20238;-72
2024/04/25 10:18:14;;;;;;;8.90;1.93;;;;;;;8.05;nan;100427.59;5377680;26;20485;-72
2024/04/25 10:20:40;;;;;;;6.77;1.50;;;;;;;7.84;nan;100389.22;5377262;26;20455;-72
2024/04/25 10:23:07;;;;;;;9.37;1.60;;;;;;;8.19;nan;100441.88;5382442;26;20306;-72
2024/04/25 10:25:33;;;;;;;10.20;1.50;;;;;;;7.66;nan;100344.25;5378649;26;20621;-72
2024/04/25 10:28:01;;;;;;;5.50;1.50;;;;;;;8.07;nan;100429.06;5392917;26;21024;-72
2024/04/25 10:30:27;;;;;;;7.47;1.30;;;;;;;7.54;nan;100393.84;5376439;26;20250;-72
2024/04/25 10:32:52;;;;;;;7.03;1.20;;;;;;;8.04;nan;100421.44;5377729;26;20525;-72
2024/04/25 10:35:18;;;;;;;8.40;1.57;;;;;;;8.22;nan;100422.81;5375495;26;20262;-72
2024/04/25 10:37:43;;;;;;;7.00;1.50;;;;;;;7.43;nan;100307.13;5379672;26;20254;-72
2024/04/25 10:40:14;;;;;;;9.37;1.40;;;;;;;8.27;nan;100431.06;5375539;26;20527;-72
2024/04/25 10:42:40;;;;;;;8.63;1.73;;;;;;;7.70;nan;100369.56;5383569;26;20282;-72
2024/04/25 10:45:06;;;;;;;7.10;1.43;;;;;;;7.98;nan;100359.94;5394510;26;20472;-72
2024/04/25 10:47:32;;;;;;;10.30;2.13;;;;;;;7.90;nan;100344.91;5385947;26;20304;-72
2024/04/25 10:49:59;;;;;;;8.73;1.73;;;;;;;8.33;nan;100420.44;5377942;26;21134;-72
2024/04/25 10:52:24;;;;;;;9.40;1.57;;;;;;;8.38;nan;100399.31;5378158;26;20619;-72
2024/04/25 10:54:51;;;;;;;4.70;1.40;;;;;;;8.22;nan;100404.94;5378634;26;20467;-72
2024/04/25 10:57:16;;;;;;;7.10;1.77;;;;;;;8.56;nan;100430.06;5380520;26;20308;-72
2024/04/25 10:59:42;;;;;;;8.40;1.87;;;;;;;8.45;nan;100382.50;5377233;26;20476;-72
2024/04/25 11:02:11;;;;;;;13.47;1.90;;;;;;;8.30;nan;100361.19;5378482;26;20329;-72
2024/04/25 11:04:42;;;;;;;6.70;1.60;;;;;;;8.97;nan;100427.44;5377423;26;20528;-72
2024/04/25 11:07:12;;;;;;;9.97;2.40;;;;;;;7.90;nan;100343.03;5380253;26;20471;-72
2024/04/25 11:09:38;;;;;;;8.40;1.67;;;;;;;8.52;nan;100402.91;5380193;26;20988;-72
2024/04/25 11:12:06;;;;;;;6.40;1.50;;;;;;;8.68;nan;100385.75;5377155;26;20475;-72
2024/04/25 11:14:33;;;;;;;8.03;1.70;;;;;;;8.46;nan;100366.25;5375880;26;20852;-72
2024/04/25 11:17:00;;;;;;;5.97;1.70;;;;;;;9.01;nan;100417.97;5391899;26;20483;-72
2024/04/25 11:19:29;;;;;;;8.90;1.67;;;;;;;8.56;nan;100339.16;5376825;26;21703;-72
2024/04/25 11:21:55;;;;;;;9.70;1.53;;;;;;;8.58;nan;100300.53;5379916;26;20596;-72
2024/04/25 11:24:22;;;;;;;7.90;1.63;;;;;;;9.22;nan;100406.34;5390543;26;20949;-72
2024/04/25 11:26:49;;;;;;;9.13;1.83;;;;;;;8.90;nan;100367.72;5382050;26;20482;-72
2024/04/25 11:29:16;;;;;;;6.40;1.57;;;;;;;8.60;nan;100369.84;5374830;26;20615;-72
2024/04/25 11:31:42;;;;;;;10.70;1.60;;;;;;;8.31;nan;100333.47;5380972;26;22446;-72
2024/04/25 11:34:22;;;;;;;9.13;1.57;;;;;;;9.05;nan;100391.66;5386309;26;20472;-72
2024/04/25 11:37:00;;;;;;;6.53;1.50;;;;;;;9.01;nan;100401.94;5377503;26;21084;-72
2024/04/25 11:39:26;;;;;;;7.17;1.20;;;;;;;8.73;nan;100383.28;5375782;26;20464;-72
2024/04/25 11:41:51;;;;;;;7.90;1.70;;;;;;;8.87;nan;100367.31;5377326;26;20909;-72
2024/04/25 11:44:17;;;;;;;9.27;2.00;;;;;;;8.95;nan;100388.53;5390166;26;20272;-72
2024/04/25 11:46:42;;;;;;;7.20;1.60;;;;;;;7.63;nan;100250.41;5387388;26;20249;-72
2024/04/25 11:49:08;;;;;;;6.10;1.40;;;;;;;8.58;nan;100367.34;5382519;26;20293;-72
2024/04/25 11:51:33;;;;;;;6.40;1.40;;;;;;;8.62;nan;100399.91;5370026;26;20291;-72
2024/04/25 11:54:02;;;;;;;5.00;1.30;;;;;;;8.60;nan;100400.06;5373997;26;20632;-72